sensor_id;sensor_type;location;lat;lon;timestamp;temperature;humidity
25568;DHT22;13455;51.480;7.594;2023-05-07T00:01:55;14.50;99.90
25568;DHT22;13455;51.480;7.594;2023-05-07T00:04:21;14.60;99.90
25568;DHT22;13455;51.480;7.594;2023-05-07T00:06:47;14.40;99.90
25568;DHT22;13455;51.480;7.594;2023-05-07T00:09:12;14.40;99.90
25568;DHT22;13455;51.480;7.594;2023-05-07T00:11:38;14.40;99.90
25568;DHT22;13455;51.480;7.594;2023-05-07T00:14:03;14.30;99.90
25568;DHT22;13455;51.480;7.594;2023-05-07T00:16:29;14.30;99.90
25568;DHT22;13455;51.480;7.594;2023-05-07T00:18:55;14.40;99.90
25568;DHT22;13455;51.480;7.594;2023-05-07T00:21:21;14.30;99.90
25568;DHT22;13455;51.480;7.594;2023-05-07T00:23:47;14.30;99.90
25568;DHT22;13455;51.480;7.594;2023-05-07T00:26:12;14.20;99.90
25568;DHT22;13455;51.480;7.594;2023-05-07T00:28:38;14.30;99.90
25568;DHT22;13455;51.480;7.594;2023-05-07T00:31:04;14.20;99.90
25568;DHT22;13455;51.480;7.594;2023-05-07T00:33:30;14.30;99.90
25568;DHT22;13455;51.480;7.594;2023-05-07T00:35:55;14.20;99.90
25568;DHT22;13455;51.480;7.594;2023-05-07T00:38:21;14.20;99.90
25568;DHT22;13455;51.480;7.594;2023-05-07T00:40:46;14.30;99.90
25568;DHT22;13455;51.480;7.594;2023-05-07T00:43:12;14.30;99.90
25568;DHT22;13455;51.480;7.594;2023-05-07T00:45:38;14.30;99.90
25568;DHT22;13455;51.480;7.594;2023-05-07T00:48:04;14.30;99.90
25568;DHT22;13455;51.480;7.594;2023-05-07T00:50:30;14.30;99.90
25568;DHT22;13455;51.480;7.594;2023-05-07T00:52:56;14.30;99.90
25568;DHT22;13455;51.480;7.594;2023-05-07T00:55:23;14.30;99.90
25568;DHT22;13455;51.480;7.594;2023-05-07T00:57:50;14.40;99.90
25568;DHT22;13455;51.480;7.594;2023-05-07T01:00:17;14.30;99.90
25568;DHT22;13455;51.480;7.594;2023-05-07T01:02:43;14.90;99.90
25568;DHT22;13455;51.480;7.594;2023-05-07T01:05:11;14.30;99.90
25568;DHT22;13455;51.480;7.594;2023-05-07T01:07:39;14.40;99.90
25568;DHT22;13455;51.480;7.594;2023-05-07T01:10:06;14.30;99.90
25568;DHT22;13455;51.480;7.594;2023-05-07T01:12:33;14.30;99.90
25568;DHT22;13455;51.480;7.594;2023-05-07T01:14:59;14.40;99.90
25568;DHT22;13455;51.480;7.594;2023-05-07T01:17:25;14.30;99.90
25568;DHT22;13455;51.480;7.594;2023-05-07T01:19:51;14.30;99.90
25568;DHT22;13455;51.480;7.594;2023-05-07T01:22:32;14.30;99.90
25568;DHT22;13455;51.480;7.594;2023-05-07T01:24:58;14.30;99.90
25568;DHT22;13455;51.480;7.594;2023-05-07T01:27:25;14.30;99.90
25568;DHT22;13455;51.480;7.594;2023-05-07T01:29:51;14.20;99.90
25568;DHT22;13455;51.480;7.594;2023-05-07T01:32:19;14.30;99.90
25568;DHT22;13455;51.480;7.594;2023-05-07T01:34:48;14.30;99.90
25568;DHT22;13455;51.480;7.594;2023-05-07T01:37:14;14.30;99.90
25568;DHT22;13455;51.480;7.594;2023-05-07T01:39:41;14.30;99.90
25568;DHT22;13455;51.480;7.594;2023-05-07T01:42:07;14.30;99.90
25568;DHT22;13455;51.480;7.594;2023-05-07T01:44:33;14.30;99.90
25568;DHT22;13455;51.480;7.594;2023-05-07T01:46:59;14.40;99.90
25568;DHT22;13455;51.480;7.594;2023-05-07T01:49:25;14.40;99.90
25568;DHT22;13455;51.480;7.594;2023-05-07T01:51:51;14.70;99.90
25568;DHT22;13455;51.480;7.594;2023-05-07T01:54:17;14.20;99.90
25568;DHT22;13455;51.480;7.594;2023-05-07T01:56:43;14.20;99.90
25568;DHT22;13455;51.480;7.594;2023-05-07T01:59:08;14.20;99.90
25568;DHT22;13455;51.480;7.594;2023-05-07T02:01:34;14.20;99.90
25568;DHT22;13455;51.480;7.594;2023-05-07T02:04:00;14.20;99.90
25568;DHT22;13455;51.480;7.594;2023-05-07T02:06:25;14.20;99.90
25568;DHT22;13455;51.480;7.594;2023-05-07T02:08:51;14.10;99.90
25568;DHT22;13455;51.480;7.594;2023-05-07T02:11:16;14.20;99.90
25568;DHT22;13455;51.480;7.594;2023-05-07T02:13:42;14.20;99.90
25568;DHT22;13455;51.480;7.594;2023-05-07T02:16:08;14.10;99.90
25568;DHT22;13455;51.480;7.594;2023-05-07T02:18:33;14.20;99.90
25568;DHT22;13455;51.480;7.594;2023-05-07T02:20:59;14.10;99.90
25568;DHT22;13455;51.480;7.594;2023-05-07T02:23:25;14.10;99.90
25568;DHT22;13455;51.480;7.594;2023-05-07T02:25:51;14.10;99.90
25568;DHT22;13455;51.480;7.594;2023-05-07T02:28:16;14.10;99.90
25568;DHT22;13455;51.480;7.594;2023-05-07T02:30:42;14.10;99.90
25568;DHT22;13455;51.480;7.594;2023-05-07T02:33:07;14.20;99.90
25568;DHT22;13455;51.480;7.594;2023-05-07T02:35:37;14.10;99.90
25568;DHT22;13455;51.480;7.594;2023-05-07T02:38:03;14.10;99.90
25568;DHT22;13455;51.480;7.594;2023-05-07T02:40:28;14.10;99.90
25568;DHT22;13455;51.480;7.594;2023-05-07T02:42:54;14.10;99.90
25568;DHT22;13455;51.480;7.594;2023-05-07T02:45:20;14.20;99.90
25568;DHT22;13455;51.480;7.594;2023-05-07T02:47:46;14.10;99.90
25568;DHT22;13455;51.480;7.594;2023-05-07T02:50:12;14.10;99.90
25568;DHT22;13455;51.480;7.594;2023-05-07T02:52:37;14.10;99.90
25568;DHT22;13455;51.480;7.594;2023-05-07T02:55:03;14.10;99.90
25568;DHT22;13455;51.480;7.594;2023-05-07T02:57:29;14.00;99.90
25568;DHT22;13455;51.480;7.594;2023-05-07T02:59:54;14.00;99.90
25568;DHT22;13455;51.480;7.594;2023-05-07T03:02:20;14.00;99.90
25568;DHT22;13455;51.480;7.594;2023-05-07T03:04:45;13.90;99.90
25568;DHT22;13455;51.480;7.594;2023-05-07T03:07:11;14.00;99.90
25568;DHT22;13455;51.480;7.594;2023-05-07T03:09:37;14.10;99.90
25568;DHT22;13455;51.480;7.594;2023-05-07T03:12:02;14.00;99.90
25568;DHT22;13455;51.480;7.594;2023-05-07T03:14:28;14.00;99.90
25568;DHT22;13455;51.480;7.594;2023-05-07T03:16:54;14.00;99.90
25568;DHT22;13455;51.480;7.594;2023-05-07T03:19:19;14.00;99.90
25568;DHT22;13455;51.480;7.594;2023-05-07T03:21:45;14.00;99.90
25568;DHT22;13455;51.480;7.594;2023-05-07T03:24:11;14.00;99.90
25568;DHT22;13455;51.480;7.594;2023-05-07T03:26:36;14.00;99.90
25568;DHT22;13455;51.480;7.594;2023-05-07T03:29:02;14.20;99.90
25568;DHT22;13455;51.480;7.594;2023-05-07T03:31:27;14.00;99.90
25568;DHT22;13455;51.480;7.594;2023-05-07T03:33:55;14.00;99.90
25568;DHT22;13455;51.480;7.594;2023-05-07T03:36:21;14.00;99.90
25568;DHT22;13455;51.480;7.594;2023-05-07T03:38:48;14.00;99.90
25568;DHT22;13455;51.480;7.594;2023-05-07T03:41:14;14.00;99.90
25568;DHT22;13455;51.480;7.594;2023-05-07T03:43:39;14.00;99.90
25568;DHT22;13455;51.480;7.594;2023-05-07T03:46:05;14.20;99.90
25568;DHT22;13455;51.480;7.594;2023-05-07T03:48:31;13.90;99.90
25568;DHT22;13455;51.480;7.594;2023-05-07T03:50:57;13.90;99.90
25568;DHT22;13455;51.480;7.594;2023-05-07T03:53:23;13.90;99.90
25568;DHT22;13455;51.480;7.594;2023-05-07T03:55:49;13.90;99.90
25568;DHT22;13455;51.480;7.594;2023-05-07T03:58:15;13.90;99.90
25568;DHT22;13455;51.480;7.594;2023-05-07T04:00:41;13.90;99.90
25568;DHT22;13455;51.480;7.594;2023-05-07T04:03:07;14.00;99.90
25568;DHT22;13455;51.480;7.594;2023-05-07T04:05:33;13.90;99.90
25568;DHT22;13455;51.480;7.594;2023-05-07T04:07:59;13.90;99.90
25568;DHT22;13455;51.480;7.594;2023-05-07T04:10:25;13.90;99.90
25568;DHT22;13455;51.480;7.594;2023-05-07T04:12:50;13.90;99.90
25568;DHT22;13455;51.480;7.594;2023-05-07T04:15:16;13.80;99.90
25568;DHT22;13455;51.480;7.594;2023-05-07T04:17:42;13.80;99.90
25568;DHT22;13455;51.480;7.594;2023-05-07T04:20:14;13.90;99.90
25568;DHT22;13455;51.480;7.594;2023-05-07T04:22:40;13.80;99.90
25568;DHT22;13455;51.480;7.594;2023-05-07T04:25:06;13.80;99.90
25568;DHT22;13455;51.480;7.594;2023-05-07T04:27:34;13.80;99.90
25568;DHT22;13455;51.480;7.594;2023-05-07T04:30:01;13.80;99.90
25568;DHT22;13455;51.480;7.594;2023-05-07T04:32:28;13.90;99.90
25568;DHT22;13455;51.480;7.594;2023-05-07T04:34:55;13.80;99.90
25568;DHT22;13455;51.480;7.594;2023-05-07T04:37:21;13.90;99.90
25568;DHT22;13455;51.480;7.594;2023-05-07T04:39:46;13.80;99.90
25568;DHT22;13455;51.480;7.594;2023-05-07T04:42:16;13.80;99.90
25568;DHT22;13455;51.480;7.594;2023-05-07T04:44:43;13.90;99.90
25568;DHT22;13455;51.480;7.594;2023-05-07T04:47:08;13.90;99.90
25568;DHT22;13455;51.480;7.594;2023-05-07T04:49:35;13.90;99.90
25568;DHT22;13455;51.480;7.594;2023-05-07T04:52:00;14.00;99.90
25568;DHT22;13455;51.480;7.594;2023-05-07T04:54:26;13.90;99.90
25568;DHT22;13455;51.480;7.594;2023-05-07T04:56:52;13.90;99.90
25568;DHT22;13455;51.480;7.594;2023-05-07T04:59:17;14.10;99.90
25568;DHT22;13455;51.480;7.594;2023-05-07T05:01:43;14.00;99.90
25568;DHT22;13455;51.480;7.594;2023-05-07T05:04:09;14.00;99.90
25568;DHT22;13455;51.480;7.594;2023-05-07T05:06:35;14.00;99.90
25568;DHT22;13455;51.480;7.594;2023-05-07T05:09:01;14.00;99.90
25568;DHT22;13455;51.480;7.594;2023-05-07T05:11:26;14.10;99.90
25568;DHT22;13455;51.480;7.594;2023-05-07T05:13:52;14.10;99.90
25568;DHT22;13455;51.480;7.594;2023-05-07T05:16:18;14.20;99.90
25568;DHT22;13455;51.480;7.594;2023-05-07T05:18:43;14.20;99.90
25568;DHT22;13455;51.480;7.594;2023-05-07T05:21:09;14.30;99.90
25568;DHT22;13455;51.480;7.594;2023-05-07T05:23:35;14.30;99.90
25568;DHT22;13455;51.480;7.594;2023-05-07T05:26:00;14.40;99.90
25568;DHT22;13455;51.480;7.594;2023-05-07T05:28:26;14.40;99.90
25568;DHT22;13455;51.480;7.594;2023-05-07T05:30:52;14.50;99.90
25568;DHT22;13455;51.480;7.594;2023-05-07T05:33:18;14.50;99.90
25568;DHT22;13455;51.480;7.594;2023-05-07T05:35:44;14.60;99.90
25568;DHT22;13455;51.480;7.594;2023-05-07T05:38:10;14.60;99.90
25568;DHT22;13455;51.480;7.594;2023-05-07T05:40:35;14.60;99.90
25568;DHT22;13455;51.480;7.594;2023-05-07T05:43:01;14.60;99.90
25568;DHT22;13455;51.480;7.594;2023-05-07T05:45:27;14.70;99.90
25568;DHT22;13455;51.480;7.594;2023-05-07T05:47:52;14.80;99.90
25568;DHT22;13455;51.480;7.594;2023-05-07T05:50:18;14.80;99.90
25568;DHT22;13455;51.480;7.594;2023-05-07T05:52:43;14.80;99.90
25568;DHT22;13455;51.480;7.594;2023-05-07T05:55:09;14.90;99.90
25568;DHT22;13455;51.480;7.594;2023-05-07T05:57:35;15.00;99.90
25568;DHT22;13455;51.480;7.594;2023-05-07T06:00:01;15.00;99.90
25568;DHT22;13455;51.480;7.594;2023-05-07T06:02:28;15.10;99.90
25568;DHT22;13455;51.480;7.594;2023-05-07T06:04:53;15.20;99.90
25568;DHT22;13455;51.480;7.594;2023-05-07T06:07:19;15.30;99.90
25568;DHT22;13455;51.480;7.594;2023-05-07T06:09:45;15.30;99.90
25568;DHT22;13455;51.480;7.594;2023-05-07T06:12:11;15.30;99.90
25568;DHT22;13455;51.480;7.594;2023-05-07T06:14:36;15.40;99.90
25568;DHT22;13455;51.480;7.594;2023-05-07T06:17:02;15.50;99.90
25568;DHT22;13455;51.480;7.594;2023-05-07T06:19:27;15.60;99.90
25568;DHT22;13455;51.480;7.594;2023-05-07T06:21:53;15.70;99.90
25568;DHT22;13455;51.480;7.594;2023-05-07T06:24:19;15.80;99.90
25568;DHT22;13455;51.480;7.594;2023-05-07T06:26:45;15.90;99.90
25568;DHT22;13455;51.480;7.594;2023-05-07T06:29:10;16.00;99.90
25568;DHT22;13455;51.480;7.594;2023-05-07T06:31:36;16.20;99.90
25568;DHT22;13455;51.480;7.594;2023-05-07T06:34:02;16.30;99.90
25568;DHT22;13455;51.480;7.594;2023-05-07T06:36:28;16.40;99.90
25568;DHT22;13455;51.480;7.594;2023-05-07T06:38:53;16.60;99.90
25568;DHT22;13455;51.480;7.594;2023-05-07T06:41:20;16.60;99.90
25568;DHT22;13455;51.480;7.594;2023-05-07T06:43:46;16.60;99.90
25568;DHT22;13455;51.480;7.594;2023-05-07T06:46:11;16.90;99.90
25568;DHT22;13455;51.480;7.594;2023-05-07T06:48:37;16.80;99.90
25568;DHT22;13455;51.480;7.594;2023-05-07T06:51:02;16.80;99.90
25568;DHT22;13455;51.480;7.594;2023-05-07T06:53:28;16.90;99.90
25568;DHT22;13455;51.480;7.594;2023-05-07T06:55:56;16.90;99.90
25568;DHT22;13455;51.480;7.594;2023-05-07T06:58:22;16.90;99.90
25568;DHT22;13455;51.480;7.594;2023-05-07T07:00:47;17.00;99.90
25568;DHT22;13455;51.480;7.594;2023-05-07T07:03:13;17.00;99.90
25568;DHT22;13455;51.480;7.594;2023-05-07T07:05:40;17.10;99.90
25568;DHT22;13455;51.480;7.594;2023-05-07T07:08:06;17.20;99.90
25568;DHT22;13455;51.480;7.594;2023-05-07T07:10:32;17.20;99.90
25568;DHT22;13455;51.480;7.594;2023-05-07T07:12:57;17.20;99.90
25568;DHT22;13455;51.480;7.594;2023-05-07T07:15:23;17.30;99.90
25568;DHT22;13455;51.480;7.594;2023-05-07T07:20:16;17.40;99.90
25568;DHT22;13455;51.480;7.594;2023-05-07T07:25:08;18.00;99.90
25568;DHT22;13455;51.480;7.594;2023-05-07T07:27:36;17.70;99.90
25568;DHT22;13455;51.480;7.594;2023-05-07T07:30:02;17.80;99.90
25568;DHT22;13455;51.480;7.594;2023-05-07T07:32:27;17.90;99.90
25568;DHT22;13455;51.480;7.594;2023-05-07T07:34:53;18.00;99.90
25568;DHT22;13455;51.480;7.594;2023-05-07T07:39:45;18.20;99.90
25568;DHT22;13455;51.480;7.594;2023-05-07T07:42:10;18.30;99.90
25568;DHT22;13455;51.480;7.594;2023-05-07T07:44:36;18.30;99.90
25568;DHT22;13455;51.480;7.594;2023-05-07T07:47:02;18.30;99.90
25568;DHT22;13455;51.480;7.594;2023-05-07T07:49:27;18.40;99.90
25568;DHT22;13455;51.480;7.594;2023-05-07T07:51:53;18.40;99.90
25568;DHT22;13455;51.480;7.594;2023-05-07T07:54:19;18.70;99.90
25568;DHT22;13455;51.480;7.594;2023-05-07T07:56:44;18.40;99.90
25568;DHT22;13455;51.480;7.594;2023-05-07T07:59:10;18.90;99.90
25568;DHT22;13455;51.480;7.594;2023-05-07T08:01:35;19.10;99.90
25568;DHT22;13455;51.480;7.594;2023-05-07T08:04:01;19.20;99.90
25568;DHT22;13455;51.480;7.594;2023-05-07T08:06:29;19.00;99.90
25568;DHT22;13455;51.480;7.594;2023-05-07T08:08:55;19.20;99.90
25568;DHT22;13455;51.480;7.594;2023-05-07T08:11:20;19.30;99.90
25568;DHT22;13455;51.480;7.594;2023-05-07T08:13:47;19.40;99.90
25568;DHT22;13455;51.480;7.594;2023-05-07T08:16:13;19.50;99.90
25568;DHT22;13455;51.480;7.594;2023-05-07T08:18:38;19.60;99.90
25568;DHT22;13455;51.480;7.594;2023-05-07T08:21:04;19.70;99.90
25568;DHT22;13455;51.480;7.594;2023-05-07T08:23:30;19.70;99.90
25568;DHT22;13455;51.480;7.594;2023-05-07T08:25:56;19.80;99.90
25568;DHT22;13455;51.480;7.594;2023-05-07T08:28:21;19.80;99.90
25568;DHT22;13455;51.480;7.594;2023-05-07T08:30:47;19.80;99.90
25568;DHT22;13455;51.480;7.594;2023-05-07T08:33:13;19.80;99.90
25568;DHT22;13455;51.480;7.594;2023-05-07T08:35:39;19.70;99.90
25568;DHT22;13455;51.480;7.594;2023-05-07T08:38:04;20.00;99.90
25568;DHT22;13455;51.480;7.594;2023-05-07T08:43:00;20.20;99.90
25568;DHT22;13455;51.480;7.594;2023-05-07T08:45:26;20.30;99.90
25568;DHT22;13455;51.480;7.594;2023-05-07T08:52:51;20.40;99.90
25568;DHT22;13455;51.480;7.594;2023-05-07T08:55:17;20.40;99.90
25568;DHT22;13455;51.480;7.594;2023-05-07T08:57:43;20.40;99.90
25568;DHT22;13455;51.480;7.594;2023-05-07T09:00:09;20.40;99.90
25568;DHT22;13455;51.480;7.594;2023-05-07T09:02:36;20.40;99.90
25568;DHT22;13455;51.480;7.594;2023-05-07T09:05:02;20.50;99.90
25568;DHT22;13455;51.480;7.594;2023-05-07T09:07:27;20.80;99.90
25568;DHT22;13455;51.480;7.594;2023-05-07T09:09:53;21.00;99.90
25568;DHT22;13455;51.480;7.594;2023-05-07T09:14:47;21.40;99.90
25568;DHT22;13455;51.480;7.594;2023-05-07T09:17:13;21.50;99.90
25568;DHT22;13455;51.480;7.594;2023-05-07T09:19:40;21.80;99.90
25568;DHT22;13455;51.480;7.594;2023-05-07T09:22:06;21.60;99.90
25568;DHT22;13455;51.480;7.594;2023-05-07T09:24:34;21.50;99.90
25568;DHT22;13455;51.480;7.594;2023-05-07T09:27:03;21.60;99.90
25568;DHT22;13455;51.480;7.594;2023-05-07T09:29:29;22.10;99.90
25568;DHT22;13455;51.480;7.594;2023-05-07T09:31:56;22.10;99.90
25568;DHT22;13455;51.480;7.594;2023-05-07T09:34:21;22.20;99.90
25568;DHT22;13455;51.480;7.594;2023-05-07T09:36:47;22.30;99.90
25568;DHT22;13455;51.480;7.594;2023-05-07T09:41:46;22.40;99.90
25568;DHT22;13455;51.480;7.594;2023-05-07T09:44:15;22.60;99.90
25568;DHT22;13455;51.480;7.594;2023-05-07T09:46:47;22.50;99.90
25568;DHT22;13455;51.480;7.594;2023-05-07T09:49:22;22.60;99.90
25568;DHT22;13455;51.480;7.594;2023-05-07T09:51:49;22.60;99.90
25568;DHT22;13455;51.480;7.594;2023-05-07T09:54:16;22.70;99.90
25568;DHT22;13455;51.480;7.594;2023-05-07T09:56:43;22.70;99.90
25568;DHT22;13455;51.480;7.594;2023-05-07T09:59:14;22.80;99.90
25568;DHT22;13455;51.480;7.594;2023-05-07T10:01:42;22.70;99.90
25568;DHT22;13455;51.480;7.594;2023-05-07T10:04:08;22.90;99.90
25568;DHT22;13455;51.480;7.594;2023-05-07T10:06:35;23.00;99.90
25568;DHT22;13455;51.480;7.594;2023-05-07T10:09:02;23.10;99.90
25568;DHT22;13455;51.480;7.594;2023-05-07T10:11:28;23.20;99.90
25568;DHT22;13455;51.480;7.594;2023-05-07T10:13:54;23.40;99.90
25568;DHT22;13455;51.480;7.594;2023-05-07T10:16:21;23.50;99.90
25568;DHT22;13455;51.480;7.594;2023-05-07T10:18:47;23.60;99.90
25568;DHT22;13455;51.480;7.594;2023-05-07T10:21:21;23.80;99.90
25568;DHT22;13455;51.480;7.594;2023-05-07T10:26:48;23.50;99.90
25568;DHT22;13455;51.480;7.594;2023-05-07T10:29:21;23.60;99.90
25568;DHT22;13455;51.480;7.594;2023-05-07T10:34:29;23.80;99.90
25568;DHT22;13455;51.480;7.594;2023-05-07T10:36:58;23.70;99.90
25568;DHT22;13455;51.480;7.594;2023-05-07T10:39:24;23.80;99.90
25568;DHT22;13455;51.480;7.594;2023-05-07T10:41:50;23.90;99.90
25568;DHT22;13455;51.480;7.594;2023-05-07T10:44:28;23.70;99.90
25568;DHT22;13455;51.480;7.594;2023-05-07T10:47:17;23.60;99.90
25568;DHT22;13455;51.480;7.594;2023-05-07T10:52:21;23.90;99.90
25568;DHT22;13455;51.480;7.594;2023-05-07T10:57:44;23.90;99.90
25568;DHT22;13455;51.480;7.594;2023-05-07T11:05:24;23.80;99.90
25568;DHT22;13455;51.480;7.594;2023-05-07T11:07:57;23.80;99.90
25568;DHT22;13455;51.480;7.594;2023-05-07T11:10:28;24.00;99.90
25568;DHT22;13455;51.480;7.594;2023-05-07T11:13:09;24.00;99.90
25568;DHT22;13455;51.480;7.594;2023-05-07T11:15:37;24.20;99.90
25568;DHT22;13455;51.480;7.594;2023-05-07T11:18:03;24.20;99.90
25568;DHT22;13455;51.480;7.594;2023-05-07T11:20:57;24.20;99.90
25568;DHT22;13455;51.480;7.594;2023-05-07T11:26:08;24.30;99.90
25568;DHT22;13455;51.480;7.594;2023-05-07T11:28:41;24.30;99.90
25568;DHT22;13455;51.480;7.594;2023-05-07T11:31:08;24.30;99.90
25568;DHT22;13455;51.480;7.594;2023-05-07T11:33:35;24.60;99.90
25568;DHT22;13455;51.480;7.594;2023-05-07T11:36:03;24.60;99.90
25568;DHT22;13455;51.480;7.594;2023-05-07T11:38:38;24.80;99.90
25568;DHT22;13455;51.480;7.594;2023-05-07T11:43:31;25.00;99.90
25568;DHT22;13455;51.480;7.594;2023-05-07T11:48:38;24.70;99.90
25568;DHT22;13455;51.480;7.594;2023-05-07T11:51:05;24.50;99.90
25568;DHT22;13455;51.480;7.594;2023-05-07T12:23:12;24.60;99.90
25568;DHT22;13455;51.480;7.594;2023-05-07T12:25:39;24.40;99.90
25568;DHT22;13455;51.480;7.594;2023-05-07T12:33:06;24.20;99.90
25568;DHT22;13455;51.480;7.594;2023-05-07T12:35:37;24.10;99.90
25568;DHT22;13455;51.480;7.594;2023-05-07T12:38:17;24.00;99.90
25568;DHT22;13455;51.480;7.594;2023-05-07T12:40:50;24.00;99.90
25568;DHT22;13455;51.480;7.594;2023-05-07T12:43:21;23.60;99.90
25568;DHT22;13455;51.480;7.594;2023-05-07T12:45:49;23.80;99.90
25568;DHT22;13455;51.480;7.594;2023-05-07T12:48:14;23.90;99.90
25568;DHT22;13455;51.480;7.594;2023-05-07T12:50:40;24.00;99.90
25568;DHT22;13455;51.480;7.594;2023-05-07T12:53:07;24.10;99.90
25568;DHT22;13455;51.480;7.594;2023-05-07T12:55:47;24.10;99.90
25568;DHT22;13455;51.480;7.594;2023-05-07T13:05:37;24.50;99.90
25568;DHT22;13455;51.480;7.594;2023-05-07T13:08:02;24.80;99.90
25568;DHT22;13455;51.480;7.594;2023-05-07T13:10:28;25.00;99.90
25568;DHT22;13455;51.480;7.594;2023-05-07T13:12:54;24.90;99.90
25568;DHT22;13455;51.480;7.594;2023-05-07T13:15:20;25.00;99.90
25568;DHT22;13455;51.480;7.594;2023-05-07T13:17:47;25.00;99.90
25568;DHT22;13455;51.480;7.594;2023-05-07T13:20:12;24.90;99.90
25568;DHT22;13455;51.480;7.594;2023-05-07T13:22:39;24.80;99.90
25568;DHT22;13455;51.480;7.594;2023-05-07T13:25:05;24.70;99.90
25568;DHT22;13455;51.480;7.594;2023-05-07T13:29:57;24.50;99.90
25568;DHT22;13455;51.480;7.594;2023-05-07T13:34:48;23.90;99.90
25568;DHT22;13455;51.480;7.594;2023-05-07T13:37:14;23.90;99.90
25568;DHT22;13455;51.480;7.594;2023-05-07T13:39:40;23.70;99.90
25568;DHT22;13455;51.480;7.594;2023-05-07T13:42:06;23.70;99.90
25568;DHT22;13455;51.480;7.594;2023-05-07T13:44:32;23.80;99.90
25568;DHT22;13455;51.480;7.594;2023-05-07T13:46:57;23.80;99.90
25568;DHT22;13455;51.480;7.594;2023-05-07T13:49:23;23.80;99.90
25568;DHT22;13455;51.480;7.594;2023-05-07T13:51:49;23.70;99.90
25568;DHT22;13455;51.480;7.594;2023-05-07T13:54:15;23.60;99.90
25568;DHT22;13455;51.480;7.594;2023-05-07T13:56:41;23.60;99.90
25568;DHT22;13455;51.480;7.594;2023-05-07T13:59:07;23.50;99.90
25568;DHT22;13455;51.480;7.594;2023-05-07T14:01:32;23.30;99.90
25568;DHT22;13455;51.480;7.594;2023-05-07T14:03:58;23.20;99.90
25568;DHT22;13455;51.480;7.594;2023-05-07T14:06:24;23.20;99.90
25568;DHT22;13455;51.480;7.594;2023-05-07T14:08:50;23.10;99.90
25568;DHT22;13455;51.480;7.594;2023-05-07T14:11:16;23.00;99.90
25568;DHT22;13455;51.480;7.594;2023-05-07T14:13:41;22.80;99.90
25568;DHT22;13455;51.480;7.594;2023-05-07T14:16:07;22.80;99.90
25568;DHT22;13455;51.480;7.594;2023-05-07T14:18:33;22.90;99.90
25568;DHT22;13455;51.480;7.594;2023-05-07T14:20:59;22.80;99.90
25568;DHT22;13455;51.480;7.594;2023-05-07T14:23:25;22.80;99.90
25568;DHT22;13455;51.480;7.594;2023-05-07T14:25:52;22.80;99.90
25568;DHT22;13455;51.480;7.594;2023-05-07T14:28:18;22.80;99.90
25568;DHT22;13455;51.480;7.594;2023-05-07T14:30:44;22.70;99.90
25568;DHT22;13455;51.480;7.594;2023-05-07T14:33:10;22.70;99.90
25568;DHT22;13455;51.480;7.594;2023-05-07T14:35:35;22.60;99.90
25568;DHT22;13455;51.480;7.594;2023-05-07T14:38:01;22.60;99.90
25568;DHT22;13455;51.480;7.594;2023-05-07T14:40:26;22.40;99.90
25568;DHT22;13455;51.480;7.594;2023-05-07T14:45:18;22.30;99.90
25568;DHT22;13455;51.480;7.594;2023-05-07T14:47:44;22.20;99.90
25568;DHT22;13455;51.480;7.594;2023-05-07T14:50:09;22.10;99.90
25568;DHT22;13455;51.480;7.594;2023-05-07T14:52:35;22.00;99.90
25568;DHT22;13455;51.480;7.594;2023-05-07T14:55:01;22.00;99.90
25568;DHT22;13455;51.480;7.594;2023-05-07T14:57:27;22.00;99.90
25568;DHT22;13455;51.480;7.594;2023-05-07T14:59:52;22.00;99.90
25568;DHT22;13455;51.480;7.594;2023-05-07T15:02:18;22.00;99.90
25568;DHT22;13455;51.480;7.594;2023-05-07T15:04:43;22.10;99.90
25568;DHT22;13455;51.480;7.594;2023-05-07T15:07:15;22.00;99.90
25568;DHT22;13455;51.480;7.594;2023-05-07T15:09:42;21.80;99.90
25568;DHT22;13455;51.480;7.594;2023-05-07T15:12:08;21.80;99.90
25568;DHT22;13455;51.480;7.594;2023-05-07T15:14:34;21.80;99.90
25568;DHT22;13455;51.480;7.594;2023-05-07T15:17:00;21.70;99.90
25568;DHT22;13455;51.480;7.594;2023-05-07T15:19:25;21.60;99.90
25568;DHT22;13455;51.480;7.594;2023-05-07T15:21:55;21.50;99.90
25568;DHT22;13455;51.480;7.594;2023-05-07T15:24:22;21.60;99.90
25568;DHT22;13455;51.480;7.594;2023-05-07T15:26:48;21.40;99.90
25568;DHT22;13455;51.480;7.594;2023-05-07T15:29:13;21.30;99.90
25568;DHT22;13455;51.480;7.594;2023-05-07T15:34:05;21.00;99.90
25568;DHT22;13455;51.480;7.594;2023-05-07T15:36:30;20.90;99.90
25568;DHT22;13455;51.480;7.594;2023-05-07T15:38:56;20.80;99.90
25568;DHT22;13455;51.480;7.594;2023-05-07T15:41:22;20.50;99.90
25568;DHT22;13455;51.480;7.594;2023-05-07T15:43:50;20.50;99.90
25568;DHT22;13455;51.480;7.594;2023-05-07T15:46:22;20.40;99.90
25568;DHT22;13455;51.480;7.594;2023-05-07T15:48:50;20.50;99.90
25568;DHT22;13455;51.480;7.594;2023-05-07T15:51:16;20.50;99.90
25568;DHT22;13455;51.480;7.594;2023-05-07T15:53:42;20.20;99.90
25568;DHT22;13455;51.480;7.594;2023-05-07T15:56:08;20.40;99.90
25568;DHT22;13455;51.480;7.594;2023-05-07T15:58:34;20.40;99.90
25568;DHT22;13455;51.480;7.594;2023-05-07T16:01:01;20.30;99.90
25568;DHT22;13455;51.480;7.594;2023-05-07T16:03:27;20.10;99.90
25568;DHT22;13455;51.480;7.594;2023-05-07T16:05:53;20.00;99.90
25568;DHT22;13455;51.480;7.594;2023-05-07T16:08:22;20.10;99.90
25568;DHT22;13455;51.480;7.594;2023-05-07T16:10:47;20.80;99.90
25568;DHT22;13455;51.480;7.594;2023-05-07T16:13:13;19.80;99.90
25568;DHT22;13455;51.480;7.594;2023-05-07T16:15:39;20.10;99.90
25568;DHT22;13455;51.480;7.594;2023-05-07T16:18:04;20.00;99.90
25568;DHT22;13455;51.480;7.594;2023-05-07T16:20:30;19.80;99.90
25568;DHT22;13455;51.480;7.594;2023-05-07T16:22:57;19.80;99.90
25568;DHT22;13455;51.480;7.594;2023-05-07T16:25:22;19.80;99.90
25568;DHT22;13455;51.480;7.594;2023-05-07T16:27:48;20.10;99.90
25568;DHT22;13455;51.480;7.594;2023-05-07T16:30:14;19.90;99.90
25568;DHT22;13455;51.480;7.594;2023-05-07T16:32:40;19.70;99.90
25568;DHT22;13455;51.480;7.594;2023-05-07T16:35:06;19.50;99.90
25568;DHT22;13455;51.480;7.594;2023-05-07T16:37:32;19.50;99.90
25568;DHT22;13455;51.480;7.594;2023-05-07T16:40:01;19.40;99.90
25568;DHT22;13455;51.480;7.594;2023-05-07T16:42:34;18.40;99.90
25568;DHT22;13455;51.480;7.594;2023-05-07T16:45:00;19.30;99.90
25568;DHT22;13455;51.480;7.594;2023-05-07T16:47:26;18.70;99.90
25568;DHT22;13455;51.480;7.594;2023-05-07T16:49:52;19.20;99.90
25568;DHT22;13455;51.480;7.594;2023-05-07T16:52:18;18.90;99.90
25568;DHT22;13455;51.480;7.594;2023-05-07T16:54:44;19.20;99.90
25568;DHT22;13455;51.480;7.594;2023-05-07T16:57:09;19.10;99.90
25568;DHT22;13455;51.480;7.594;2023-05-07T17:04:27;19.10;99.90
25568;DHT22;13455;51.480;7.594;2023-05-07T17:06:54;19.00;99.90